Terminal Aerodrome Forecast
Issued by NWS

Current Version | Previous Version | Text Only | Print | Product List | Glossary Off
Versions: 1 2 3 4 5 6 7 8 9 10 11 12 13 14 15 16 17 18 19 20 21 22 23 24 25 26 27 28 29

000
FTUS41 KILN 230500
TAFLUK
TAF
KLUK 230535Z 2306/2406 16003KT 5SM -SHRA BR SCT030 OVC060
     FM230700 19005KT P6SM VCSH BKN030 OVC050
     FM231000 18004KT P6SM OVC018
     FM232000 VRB02KT 5SM -SHRA BR OVC015
     FM240000 VRB02KT 5SM BR OVC020
     FM240400 12003KT 5SM -SHRA BR OVC015=

USA.gov is the U.S. government's official web portal to all federal, state and local government web resources and services.